Aérodrome :
LOGIN :

S'inscrire | Disclaimer

   EN    FR    IT 

 










Légende :    VFR   VFR Marginal   IFR   IFR Intensif   IFR Très Intensif
Visi : 
Plafond : 
>= 8 km
>= 3000ft
5 à 8 km
1000 à 3000 ft
1500m à 5 km
500 à 1000 ft
800 à 1500m
200 à 500 ft
< 800m
< 200 ft
Symboles :   Orages  Brouillard  Fortes neiges  Fortes précipitations  Vent > 20 kt
SIGMETs :   Divers  Orages  Givrage  Turbulence  Onde Orograph.  Cendres Volcan.






- Altitude de l'aérodrome : 2096 ft
- Code IATA : AUR


LFLW - Aurillac

DERNIER METAR :
  • 250100Z AUTO 19002KT 7000 SCT013 OVC027 09/09 Q1015

METARs EXPIRÉS :
  • 250030Z AUTO 00000KT 7000 1000 R15/P2000 BKN014 OVC033 09/09 Q1015
  • 250000Z AUTO 08002KT 9999 FEW017 BKN023 BKN058 10/10 Q1014
  • 242330Z AUTO 16001KT 9999 BKN018/// OVC060/// ///TCU 10/10 Q1015
  • 242300Z AUTO VRB01KT 9999 FEW007/// BKN018/// BKN028/// ///TCU 10/10 Q1015
  • 242230Z AUTO VRB02KT 9999 SCT018/// BKN032/// BKN039/// ///CB 11/10 Q1015

Prévision TAF périmée.



MET'MAP, la Météo Aéronautique d'un coup d'oeil ! - Copyright ORBIFLY Décembre 2007 - Disclaimer

ORBIFLY MET'MAP TEAM :

Programmation & Développement : Alexandra Zaïnal
Sur une idée originale de : Baudouin d'Aumeries
Soutien technique & logistique : Manuel Goepfert
Assistance : Marc-Olivier Méhu




SOURCES & CREDITS :

   NOAA